createdAt,value
2022-10-14T00:02:02.352Z,8.60
2022-10-14T00:04:44.142Z,8.58
2022-10-14T00:07:25.834Z,8.56
2022-10-14T00:10:08.040Z,8.54
2022-10-14T00:12:50.754Z,8.51
2022-10-14T00:15:32.749Z,8.47
2022-10-14T00:18:14.338Z,8.46
2022-10-14T00:21:01.317Z,8.46
2022-10-14T00:23:44.376Z,8.42
2022-10-14T00:26:29.857Z,8.39
2022-10-14T00:29:15.491Z,8.39
2022-10-14T00:31:57.129Z,8.39
2022-10-14T00:34:38.921Z,8.39
2022-10-14T00:37:20.925Z,8.38
2022-10-14T00:40:04.248Z,8.37
2022-10-14T00:42:45.941Z,8.36
2022-10-14T00:45:27.733Z,8.37
2022-10-14T00:48:10.243Z,8.36
2022-10-14T00:50:56.646Z,8.34
2022-10-14T00:53:42.433Z,8.32
2022-10-14T00:56:28.936Z,8.29
2022-10-14T00:59:10.934Z,8.28
2022-10-14T01:01:53.034Z,8.29
2022-10-14T01:04:39.538Z,8.30
2022-10-14T01:07:40.787Z,8.28
2022-10-14T01:10:41.729Z,8.25
2022-10-14T01:13:31.482Z,8.25
2022-10-14T01:16:36.958Z,8.23
2022-10-14T01:19:51.725Z,8.20
2022-10-14T01:22:41.101Z,8.16
2022-10-14T01:25:53.609Z,8.13
2022-10-14T01:28:52.021Z,8.10
2022-10-14T01:31:40.227Z,8.04
2022-10-14T01:34:32.576Z,7.98
2022-10-14T01:37:19.653Z,7.93
2022-10-14T01:40:08.608Z,7.87
2022-10-14T01:42:53.215Z,7.81
2022-10-14T01:45:38.081Z,7.76
2022-10-14T01:48:24.071Z,7.72
2022-10-14T01:51:13.443Z,7.67
2022-10-14T01:54:00.253Z,7.64
2022-10-14T01:56:45.192Z,7.63
2022-10-14T01:59:29.676Z,7.61
2022-10-14T02:02:13.403Z,7.58
2022-10-14T02:04:56.045Z,7.57
2022-10-14T02:07:42.945Z,7.55
2022-10-14T02:10:38.148Z,7.54
2022-10-14T02:14:03.565Z,7.54
2022-10-14T02:17:10.247Z,7.54
2022-10-14T02:20:13.437Z,7.56
2022-10-14T02:23:00.216Z,7.58
2022-10-14T02:25:44.883Z,7.60
2022-10-14T02:28:30.039Z,7.64
2022-10-14T02:31:15.552Z,7.67
2022-10-14T02:34:02.781Z,7.69
2022-10-14T02:36:46.083Z,7.70
2022-10-14T02:39:36.300Z,7.70
2022-10-14T02:42:19.212Z,7.70
2022-10-14T02:45:01.729Z,7.69
2022-10-14T02:47:43.421Z,7.69
2022-10-14T02:50:25.047Z,7.68
2022-10-14T02:53:06.802Z,7.68
2022-10-14T02:55:48.495Z,7.66
2022-10-14T02:58:30.184Z,7.66
2022-10-14T03:01:11.874Z,7.63
2022-10-14T03:03:53.873Z,7.62
2022-10-14T03:06:37.099Z,7.62
2022-10-14T03:09:19.918Z,7.62
2022-10-14T03:12:02.123Z,7.65
2022-10-14T03:14:44.220Z,7.66
2022-10-14T03:17:26.886Z,7.66
2022-10-14T03:20:10.035Z,7.66
2022-10-14T03:22:57.486Z,7.66
2022-10-14T03:25:39.380Z,7.63
2022-10-14T03:28:28.901Z,7.61
2022-10-14T03:31:17.201Z,7.58
2022-10-14T03:34:37.087Z,7.54
2022-10-14T03:37:21.852Z,7.53
2022-10-14T03:40:05.384Z,7.54
2022-10-14T03:42:48.408Z,7.52
2022-10-14T03:45:30.674Z,7.49
2022-10-14T03:48:12.610Z,7.43
2022-10-14T03:50:55.119Z,7.38
2022-10-14T03:53:37.628Z,7.33
2022-10-14T03:56:19.626Z,7.28
2022-10-14T03:59:02.034Z,7.21
2022-10-14T04:01:43.996Z,7.14
2022-10-14T04:04:37.704Z,7.08
2022-10-14T04:07:19.600Z,7.00
2022-10-14T04:10:07.230Z,6.95
2022-10-14T04:12:50.970Z,6.93
2022-10-14T04:15:45.357Z,6.92
2022-10-14T04:18:35.025Z,6.91
2022-10-14T04:21:17.247Z,6.91
2022-10-14T04:24:07.375Z,6.90
2022-10-14T04:26:57.317Z,6.88
2022-10-14T04:29:50.472Z,6.86
2022-10-14T04:32:38.587Z,6.82
2022-10-14T04:35:21.123Z,6.80
2022-10-14T04:38:04.663Z,6.78
2022-10-14T04:40:46.349Z,6.76
2022-10-14T04:43:28.348Z,6.75
2022-10-14T04:46:10.043Z,6.73
2022-10-14T04:48:51.933Z,6.73
2022-10-14T04:51:34.853Z,6.72
2022-10-14T04:54:35.128Z,6.72
2022-10-14T04:57:17.345Z,6.71
2022-10-14T05:00:02.265Z,6.70
2022-10-14T05:03:01.566Z,6.69
2022-10-14T05:05:47.647Z,6.65
2022-10-14T05:08:29.543Z,6.65
2022-10-14T05:11:14.407Z,6.67
2022-10-14T05:14:01.935Z,6.70
2022-10-14T05:16:44.652Z,6.72
2022-10-14T05:19:26.341Z,6.74
2022-10-14T05:22:08.238Z,6.76
2022-10-14T05:24:54.638Z,6.78
2022-10-14T05:27:36.640Z,6.78
2022-10-14T05:30:19.351Z,6.79
2022-10-14T05:33:03.807Z,6.77
2022-10-14T05:36:00.235Z,6.73
2022-10-14T05:38:45.110Z,6.70
2022-10-14T05:41:26.902Z,6.70
2022-10-14T05:44:11.255Z,6.70
2022-10-14T05:46:53.254Z,6.69
2022-10-14T05:49:34.948Z,6.68
2022-10-14T05:52:17.766Z,6.66
2022-10-14T05:54:59.760Z,6.68
2022-10-14T05:57:44.522Z,6.72
2022-10-14T06:00:28.553Z,6.75
2022-10-14T06:03:13.560Z,6.79
2022-10-14T06:05:56.354Z,6.84
2022-10-14T06:08:38.044Z,6.89
2022-10-14T06:27:42.007Z,7.76
2022-10-14T06:30:23.701Z,7.94
2022-10-14T06:33:05.390Z,7.97
2022-10-14T06:35:47.800Z,7.99
2022-10-14T06:38:29.420Z,8.01
2022-10-14T06:41:11.281Z,8.01
2022-10-14T06:43:53.488Z,7.99
2022-10-14T06:46:35.095Z,7.98
2022-10-14T06:49:16.762Z,8.00
2022-10-14T06:51:58.455Z,8.04
2022-10-14T06:54:42.574Z,8.08
2022-10-14T06:57:26.550Z,8.13
2022-10-14T07:00:09.166Z,8.19
2022-10-14T07:02:52.080Z,8.29
2022-10-14T07:05:34.076Z,8.39
2022-10-14T07:12:26.008Z,8.87
2022-10-14T07:15:08.619Z,9.10
2022-10-14T07:17:50.338Z,9.36
2022-10-14T07:20:34.052Z,9.60
2022-10-14T07:23:15.767Z,9.76
2022-10-14T07:25:58.893Z,9.88
2022-10-14T07:28:41.564Z,10.02
2022-10-14T07:31:23.300Z,10.25
2022-10-14T07:34:05.296Z,10.48
2022-10-14T07:36:47.090Z,10.62
2022-10-14T07:39:29.323Z,10.67
2022-10-14T07:42:11.148Z,10.72
2022-10-14T07:44:55.279Z,10.77
2022-10-14T07:47:37.163Z,10.87
2022-10-14T07:50:19.847Z,11.09
2022-10-14T07:53:01.781Z,11.34
2022-10-14T07:55:52.145Z,11.63
2022-10-14T07:58:33.826Z,11.87
2022-10-14T08:01:16.792Z,11.99
2022-10-14T08:03:58.744Z,12.12
2022-10-14T08:06:41.050Z,12.27
2022-10-14T08:09:23.333Z,12.38
2022-10-14T08:12:05.355Z,12.50
2022-10-14T08:14:47.249Z,12.63
2022-10-14T08:17:29.042Z,12.86
2022-10-14T08:20:11.405Z,13.12
2022-10-14T08:22:53.346Z,13.36
2022-10-14T08:25:36.788Z,13.55
2022-10-14T08:28:18.558Z,13.78
2022-10-14T08:31:00.366Z,13.91
2022-10-14T08:33:42.259Z,14.08
2022-10-14T08:36:24.462Z,14.28
2022-10-14T08:39:07.425Z,14.49
2022-10-14T08:42:21.082Z,14.66
2022-10-14T08:45:09.202Z,14.78
2022-10-14T08:47:55.083Z,14.94
2022-10-14T08:50:44.459Z,15.16
2022-10-14T08:53:48.746Z,15.43
2022-10-14T08:56:30.437Z,15.57
2022-10-14T08:59:19.708Z,15.56
2022-10-14T09:02:12.028Z,15.59
2022-10-14T09:04:53.944Z,15.66
2022-10-14T09:07:37.271Z,15.63
2022-10-14T09:10:30.329Z,15.50
2022-10-14T09:13:26.360Z,15.39
2022-10-14T09:16:17.483Z,15.32
2022-10-14T09:19:06.819Z,15.24
2022-10-14T09:21:53.658Z,15.20
2022-10-14T09:24:36.261Z,15.18
2022-10-14T09:27:23.632Z,15.16
2022-10-14T09:30:10.600Z,15.15
2022-10-14T09:32:55.773Z,15.21
2022-10-14T09:35:42.143Z,15.30
2022-10-14T09:38:24.684Z,15.41
2022-10-14T09:41:15.489Z,15.50
2022-10-14T09:44:23.702Z,15.56
2022-10-14T09:47:09.449Z,15.62
2022-10-14T09:49:54.456Z,15.71
2022-10-14T09:52:38.297Z,15.81
2022-10-14T09:55:24.525Z,15.90
2022-10-14T09:58:14.372Z,16.05
2022-10-14T10:01:00.779Z,16.28
2022-10-14T10:03:42.788Z,16.50
2022-10-14T10:06:27.023Z,16.79
2022-10-14T10:09:18.447Z,17.03
2022-10-14T10:12:00.446Z,17.20
2022-10-14T10:14:42.069Z,17.30
2022-10-14T10:17:24.177Z,17.47
2022-10-14T10:20:28.793Z,17.66
2022-10-14T10:23:37.230Z,17.78
2022-10-14T10:26:26.255Z,17.76
2022-10-14T10:29:34.660Z,17.71
2022-10-14T10:32:30.925Z,17.69
2022-10-14T10:35:18.632Z,17.71
2022-10-14T10:38:10.173Z,17.70
2022-10-14T10:41:23.789Z,17.63
2022-10-14T10:59:37.192Z,17.72
2022-10-14T11:02:45.010Z,17.51
2022-10-14T11:05:39.000Z,17.33
2022-10-14T11:09:11.985Z,17.22
2022-10-14T11:12:23.357Z,17.08
2022-10-14T11:18:45.646Z,16.88
2022-10-14T11:21:43.201Z,16.81
2022-10-14T11:24:33.897Z,16.76
2022-10-14T11:28:00.757Z,16.76
2022-10-14T11:30:59.023Z,16.80
2022-10-14T11:34:17.165Z,16.82
2022-10-14T11:37:23.941Z,16.83
2022-10-14T11:40:37.066Z,16.82
2022-10-14T11:43:48.256Z,16.81
2022-10-14T11:46:35.989Z,16.73
2022-10-14T11:49:37.533Z,16.70
2022-10-14T11:52:32.020Z,16.70
2022-10-14T11:55:24.238Z,16.68
2022-10-14T11:58:16.199Z,16.69
2022-10-14T12:01:05.791Z,16.68
2022-10-14T12:04:12.555Z,16.66
2022-10-14T12:07:06.053Z,16.64
2022-10-14T12:09:57.425Z,16.59
2022-10-14T12:12:42.720Z,16.52
2022-10-14T12:15:27.458Z,16.49
2022-10-14T12:18:12.257Z,16.45
2022-10-14T12:21:12.664Z,16.42
2022-10-14T12:24:03.241Z,16.40
2022-10-14T12:27:00.737Z,16.39
2022-10-14T12:29:47.936Z,16.41
2022-10-14T12:32:31.298Z,16.42
2022-10-14T12:35:45.541Z,16.43
2022-10-14T12:38:29.440Z,16.44
2022-10-14T12:41:39.341Z,16.46
2022-10-14T12:56:39.148Z,17.09
2022-10-14T12:59:27.086Z,17.10
2022-10-14T13:02:32.636Z,16.98
2022-10-14T13:05:37.584Z,16.89
2022-10-14T13:08:25.882Z,16.82
2022-10-14T13:11:13.424Z,16.74
2022-10-14T13:14:00.643Z,16.68
2022-10-14T13:16:45.432Z,16.63
2022-10-14T13:19:33.470Z,16.57
2022-10-14T13:22:31.313Z,16.52
2022-10-14T13:25:20.027Z,16.48
2022-10-14T13:28:04.553Z,16.44
2022-10-14T13:31:03.771Z,16.42
2022-10-14T13:33:55.646Z,16.39
2022-10-14T13:36:57.547Z,16.37
2022-10-14T13:39:39.448Z,16.38
2022-10-14T13:42:26.831Z,16.38
2022-10-14T13:45:15.843Z,16.35
2022-10-14T13:47:58.853Z,16.30
2022-10-14T13:50:42.284Z,16.28
2022-10-14T13:53:24.385Z,16.25
2022-10-14T13:56:32.094Z,16.21
2022-10-14T13:59:43.159Z,16.16
2022-10-14T14:02:27.604Z,16.13
2022-10-14T14:05:16.368Z,16.10
2022-10-14T14:08:36.826Z,16.06
2022-10-14T14:11:16.232Z,16.02
2022-10-14T14:14:05.174Z,16.00
2022-10-14T14:16:53.753Z,15.98
2022-10-14T14:19:37.571Z,15.98
2022-10-14T14:22:31.253Z,15.96
2022-10-14T14:25:50.597Z,15.93
2022-10-14T14:28:31.651Z,15.92
2022-10-14T14:31:19.759Z,15.90
2022-10-14T14:34:01.729Z,15.89
2022-10-14T14:36:51.174Z,15.86
2022-10-14T14:39:33.815Z,15.82
2022-10-14T14:42:15.609Z,15.80
2022-10-14T14:45:01.569Z,15.77
2022-10-14T14:47:44.275Z,15.74
2022-10-14T14:50:34.235Z,15.71
2022-10-14T14:53:27.460Z,15.67
2022-10-14T14:56:16.024Z,15.64
2022-10-14T14:59:19.718Z,15.62
2022-10-14T15:02:03.360Z,15.59
2022-10-14T15:04:45.457Z,15.57
2022-10-14T15:07:27.350Z,15.54
2022-10-14T15:10:22.535Z,15.55
2022-10-14T15:13:04.967Z,15.53
2022-10-14T15:15:53.695Z,15.51
2022-10-14T15:18:37.845Z,15.50
2022-10-14T15:21:20.178Z,15.48
2022-10-14T15:24:03.534Z,15.45
2022-10-14T15:26:46.538Z,15.42
2022-10-14T15:29:28.325Z,15.37
2022-10-14T15:32:15.460Z,15.33
2022-10-14T15:35:01.229Z,15.28
2022-10-14T15:37:43.777Z,15.21
2022-10-14T15:40:29.066Z,15.18
2022-10-14T15:43:17.733Z,15.14
2022-10-14T15:46:19.785Z,15.10
2022-10-14T15:49:03.370Z,15.06
2022-10-14T15:51:45.072Z,15.01
2022-10-14T15:54:28.666Z,15.00
2022-10-14T15:57:13.960Z,14.98
2022-10-14T16:00:00.273Z,14.95
2022-10-14T16:02:43.925Z,14.90
2022-10-14T16:05:29.256Z,14.86
2022-10-14T16:08:14.254Z,14.80
2022-10-14T16:10:57.688Z,14.75
2022-10-14T16:13:39.377Z,14.73
2022-10-14T16:16:31.003Z,14.69
2022-10-14T16:19:12.960Z,14.63
2022-10-14T16:21:54.792Z,14.57
2022-10-14T16:24:36.690Z,14.51
2022-10-14T16:27:19.792Z,14.45
2022-10-14T16:30:01.928Z,14.37
2022-10-14T16:32:45.347Z,14.29
2022-10-14T16:35:27.243Z,14.25
2022-10-14T16:38:12.003Z,14.22
2022-10-14T16:40:59.224Z,14.19
2022-10-14T16:43:41.016Z,14.13
2022-10-14T16:46:43.221Z,14.08
2022-10-14T16:49:24.982Z,14.03
2022-10-14T16:52:08.311Z,13.99
2022-10-14T16:54:49.951Z,13.94
2022-10-14T16:57:32.408Z,13.92
2022-10-14T17:00:16.217Z,13.90
2022-10-14T17:02:57.943Z,13.88
2022-10-14T17:05:40.009Z,13.87
2022-10-14T17:08:22.244Z,13.87
2022-10-14T17:11:11.103Z,13.86
2022-10-14T17:13:54.471Z,13.86
2022-10-14T17:16:36.225Z,13.84
2022-10-14T17:19:18.942Z,13.82
2022-10-14T17:22:02.270Z,13.77
2022-10-14T17:24:43.961Z,13.73
2022-10-14T17:27:26.087Z,13.69
2022-10-14T17:30:08.573Z,13.66
2022-10-14T17:32:50.366Z,13.62
2022-10-14T17:35:33.795Z,13.57
2022-10-14T17:38:15.487Z,13.52
2022-10-14T17:41:08.852Z,13.46
2022-10-14T17:43:51.910Z,13.41
2022-10-14T17:46:34.283Z,13.34
2022-10-14T17:49:16.281Z,13.28
2022-10-14T17:52:04.838Z,13.23
2022-10-14T17:54:46.629Z,13.18
2022-10-14T17:57:28.418Z,13.13
2022-10-14T18:00:11.078Z,13.08
2022-10-14T18:02:55.999Z,13.02
2022-10-14T18:05:39.636Z,12.97
2022-10-14T18:08:21.330Z,12.91
2022-10-14T18:11:09.954Z,12.86
2022-10-14T18:13:59.354Z,12.80
2022-10-14T18:16:43.772Z,12.74
2022-10-14T18:19:26.122Z,12.68
2022-10-14T18:22:08.315Z,12.62
2022-10-14T18:24:49.958Z,12.60
2022-10-14T18:27:31.596Z,12.57
2022-10-14T18:30:13.695Z,12.55
2022-10-14T18:32:56.104Z,12.52
2022-10-14T18:35:37.898Z,12.50
2022-10-14T18:38:19.587Z,12.48
2022-10-14T18:41:03.926Z,12.48
2022-10-14T18:43:46.349Z,12.49
2022-10-14T18:46:30.238Z,12.50
2022-10-14T18:49:12.295Z,12.51
2022-10-14T18:51:55.341Z,12.52
2022-10-14T18:54:37.208Z,12.52
2022-10-14T18:57:18.900Z,12.52
2022-10-14T19:00:00.692Z,12.51
2022-10-14T19:02:42.382Z,12.52
2022-10-14T19:05:24.075Z,12.52
2022-10-14T19:08:06.120Z,12.52
2022-10-14T19:10:47.867Z,12.53
2022-10-14T19:13:29.761Z,12.56
2022-10-14T19:16:18.298Z,12.56
2022-10-14T19:19:04.426Z,12.55
2022-10-14T19:21:49.067Z,12.52
2022-10-14T19:24:30.860Z,12.48
2022-10-14T19:27:12.554Z,12.44
2022-10-14T19:29:54.344Z,12.41
2022-10-14T19:32:36.035Z,12.39
2022-10-14T19:38:05.664Z,12.32
2022-10-14T19:40:47.355Z,12.29
2022-10-14T19:43:30.312Z,12.28
2022-10-14T19:46:13.851Z,12.27
2022-10-14T19:48:58.668Z,12.26
2022-10-14T19:51:41.187Z,12.25
2022-10-14T19:54:22.879Z,12.24
2022-10-14T19:57:04.568Z,12.24
2022-10-14T19:59:46.360Z,12.22
2022-10-14T20:02:28.082Z,12.22
2022-10-14T20:05:09.745Z,12.20
2022-10-14T20:07:51.534Z,12.19
2022-10-14T20:10:33.342Z,12.15
2022-10-14T20:13:15.391Z,12.09
2022-10-14T20:15:59.319Z,12.02
2022-10-14T20:18:41.681Z,11.97
2022-10-14T20:21:23.981Z,11.94
2022-10-14T20:24:06.083Z,11.90
2022-10-14T20:26:47.850Z,11.87
2022-10-14T20:29:29.568Z,11.84
2022-10-14T20:32:11.462Z,11.81
2022-10-14T20:34:53.154Z,11.78
2022-10-14T20:37:34.899Z,11.77
2022-10-14T20:40:17.049Z,11.75
2022-10-14T20:42:58.739Z,11.72
2022-10-14T20:45:40.532Z,11.69
2022-10-14T20:48:22.222Z,11.66
2022-10-14T20:51:09.166Z,11.62
2022-10-14T20:53:58.553Z,11.59
2022-10-14T20:56:43.783Z,11.55
2022-10-14T20:59:25.472Z,11.53
2022-10-14T21:02:16.491Z,11.52
2022-10-14T21:04:58.172Z,11.53
2022-10-14T21:07:39.864Z,11.53
2022-10-14T21:10:21.656Z,11.53
2022-10-14T21:13:03.348Z,11.51
2022-10-14T21:15:45.143Z,11.49
2022-10-14T21:18:27.958Z,11.47
2022-10-14T21:21:11.627Z,11.45
2022-10-14T21:23:58.248Z,11.43
2022-10-14T21:26:41.046Z,11.41
2022-10-14T21:29:23.325Z,11.37
2022-10-14T21:32:05.574Z,11.29
2022-10-14T21:34:47.319Z,11.23
2022-10-14T21:37:29.010Z,11.18
2022-10-14T21:40:11.421Z,11.14
2022-10-14T21:42:53.212Z,11.09
2022-10-14T21:45:35.441Z,11.06
2022-10-14T21:48:20.355Z,11.03
2022-10-14T21:51:06.104Z,10.98
2022-10-14T21:53:48.577Z,10.92
2022-10-14T21:56:31.013Z,10.87
2022-10-14T21:59:13.951Z,10.83
2022-10-14T22:01:59.692Z,10.78
2022-10-14T22:04:41.586Z,10.76
2022-10-14T22:07:24.159Z,10.74
2022-10-14T22:10:27.329Z,10.73
2022-10-14T22:13:11.241Z,10.76
2022-10-14T22:15:54.872Z,10.78
2022-10-14T22:18:36.664Z,10.79
2022-10-14T22:21:21.609Z,10.81
2022-10-14T22:24:04.532Z,10.83
2022-10-14T22:26:46.346Z,10.83
2022-10-14T22:29:28.003Z,10.84
2022-10-14T22:32:09.728Z,10.84
2022-10-14T22:34:53.857Z,10.83
2022-10-14T22:37:36.546Z,10.81
2022-10-14T22:40:18.696Z,10.79
2022-10-14T22:43:00.485Z,10.78
2022-10-14T22:45:42.207Z,10.79
2022-10-14T22:48:29.278Z,10.78
2022-10-14T22:51:14.085Z,10.76
2022-10-14T22:53:56.362Z,10.73
2022-10-14T22:56:39.280Z,10.69
2022-10-14T22:59:21.079Z,10.66
2022-10-14T23:02:03.074Z,10.63
2022-10-14T23:04:45.384Z,10.57
2022-10-14T23:07:29.424Z,10.49
2022-10-14T23:10:11.116Z,10.40
2022-10-14T23:12:54.035Z,10.31
2022-10-14T23:15:36.878Z,10.26
2022-10-14T23:18:18.645Z,10.21
2022-10-14T23:21:08.040Z,10.16
2022-10-14T23:23:51.721Z,10.11
2022-10-14T23:26:35.808Z,10.08
2022-10-14T23:29:17.595Z,10.04
2022-10-14T23:31:59.390Z,9.97
2022-10-14T23:34:41.183Z,9.90
2022-10-14T23:37:23.615Z,9.81
2022-10-14T23:40:06.713Z,9.74
2022-10-14T23:42:48.507Z,9.73
2022-10-14T23:45:30.403Z,9.73
2022-10-14T23:48:12.093Z,9.72
2022-10-14T23:50:54.471Z,9.72
2022-10-14T23:53:36.192Z,9.70
2022-10-14T23:56:18.498Z,9.68
2022-10-14T23:59:00.189Z,9.69
